sensor_id;sensor_type;location;lat;lon;timestamp;temperature;humidity
11047;DHT22;5576;50.008;10.596;2022-09-09T00:03:57;15.00;99.90
11047;DHT22;5576;50.008;10.596;2022-09-09T00:06:33;18.60;99.90
11047;DHT22;5576;50.008;10.596;2022-09-09T00:09:21;19.00;99.90
11047;DHT22;5576;50.008;10.596;2022-09-09T00:11:52;14.80;99.90
11047;DHT22;5576;50.008;10.596;2022-09-09T00:20:16;14.90;99.90
11047;DHT22;5576;50.008;10.596;2022-09-09T00:22:52;14.70;99.90
11047;DHT22;5576;50.008;10.596;2022-09-09T00:25:28;12.70;99.90
11047;DHT22;5576;50.008;10.596;2022-09-09T00:27:56;15.10;99.90
11047;DHT22;5576;50.008;10.596;2022-09-09T00:30:24;12.90;99.90
11047;DHT22;5576;50.008;10.596;2022-09-09T00:32:58;15.60;99.90
11047;DHT22;5576;50.008;10.596;2022-09-09T00:35:29;15.00;99.90
11047;DHT22;5576;50.008;10.596;2022-09-09T00:38:00;14.90;99.90
11047;DHT22;5576;50.008;10.596;2022-09-09T00:40:33;15.00;99.90
11047;DHT22;5576;50.008;10.596;2022-09-09T00:48:42;15.10;99.90
11047;DHT22;5576;50.008;10.596;2022-09-09T00:51:16;15.10;99.90
11047;DHT22;5576;50.008;10.596;2022-09-09T00:56:38;15.10;99.90
11047;DHT22;5576;50.008;10.596;2022-09-09T00:59:22;15.10;99.90
11047;DHT22;5576;50.008;10.596;2022-09-09T01:01:51;15.10;99.90
11047;DHT22;5576;50.008;10.596;2022-09-09T01:04:27;15.10;99.90
11047;DHT22;5576;50.008;10.596;2022-09-09T01:07:01;12.80;99.90
11047;DHT22;5576;50.008;10.596;2022-09-09T01:09:52;15.10;99.90
11047;DHT22;5576;50.008;10.596;2022-09-09T01:12:41;18.80;99.90
11047;DHT22;5576;50.008;10.596;2022-09-09T01:17:50;15.20;99.90
11047;DHT22;5576;50.008;10.596;2022-09-09T01:20:20;15.10;99.90
11047;DHT22;5576;50.008;10.596;2022-09-09T01:23:04;15.10;99.90
11047;DHT22;5576;50.008;10.596;2022-09-09T01:26:09;11.90;99.90
11047;DHT22;5576;50.008;10.596;2022-09-09T01:28:37;15.30;99.90
11047;DHT22;5576;50.008;10.596;2022-09-09T01:31:13;15.30;99.90
11047;DHT22;5576;50.008;10.596;2022-09-09T01:33:43;12.20;99.90
11047;DHT22;5576;50.008;10.596;2022-09-09T01:36:15;15.30;99.90
11047;DHT22;5576;50.008;10.596;2022-09-09T01:38:48;15.20;99.90
11047;DHT22;5576;50.008;10.596;2022-09-09T01:41:15;15.80;99.90
11047;DHT22;5576;50.008;10.596;2022-09-09T01:43:56;17.90;99.90
11047;DHT22;5576;50.008;10.596;2022-09-09T01:46:23;15.20;99.90
11047;DHT22;5576;50.008;10.596;2022-09-09T01:48:51;15.10;99.90
11047;DHT22;5576;50.008;10.596;2022-09-09T01:51:18;15.00;99.90
11047;DHT22;5576;50.008;10.596;2022-09-09T01:53:45;15.10;99.90
11047;DHT22;5576;50.008;10.596;2022-09-09T02:02:13;15.20;99.90
11047;DHT22;5576;50.008;10.596;2022-09-09T02:04:52;15.10;99.90
11047;DHT22;5576;50.008;10.596;2022-09-09T02:07:41;13.10;99.90
11047;DHT22;5576;50.008;10.596;2022-09-09T02:10:24;15.10;99.90
11047;DHT22;5576;50.008;10.596;2022-09-09T02:13:08;15.00;99.90
11047;DHT22;5576;50.008;10.596;2022-09-09T02:15:44;15.10;99.90
11047;DHT22;5576;50.008;10.596;2022-09-09T02:18:14;11.70;99.90
11047;DHT22;5576;50.008;10.596;2022-09-09T02:20:43;15.30;99.90
11047;DHT22;5576;50.008;10.596;2022-09-09T02:23:11;15.20;99.90
11047;DHT22;5576;50.008;10.596;2022-09-09T02:25:40;18.00;99.90
11047;DHT22;5576;50.008;10.596;2022-09-09T02:28:19;11.90;99.90
11047;DHT22;5576;50.008;10.596;2022-09-09T02:30:50;15.10;99.90
11047;DHT22;5576;50.008;10.596;2022-09-09T02:33:25;15.10;99.90
11047;DHT22;5576;50.008;10.596;2022-09-09T02:35:52;15.10;99.90
11047;DHT22;5576;50.008;10.596;2022-09-09T02:38:26;17.00;99.90
11047;DHT22;5576;50.008;10.596;2022-09-09T02:41:00;15.20;99.90
11047;DHT22;5576;50.008;10.596;2022-09-09T02:43:36;15.10;99.90
11047;DHT22;5576;50.008;10.596;2022-09-09T02:49:09;15.20;99.90
11047;DHT22;5576;50.008;10.596;2022-09-09T02:51:53;15.20;99.90
11047;DHT22;5576;50.008;10.596;2022-09-09T02:54:27;18.50;99.90
11047;DHT22;5576;50.008;10.596;2022-09-09T02:57:05;15.10;99.90
11047;DHT22;5576;50.008;10.596;2022-09-09T02:59:37;15.00;99.90
11047;DHT22;5576;50.008;10.596;2022-09-09T03:02:04;13.30;99.90
11047;DHT22;5576;50.008;10.596;2022-09-09T03:04:31;15.00;99.90
11047;DHT22;5576;50.008;10.596;2022-09-09T03:06:58;15.00;99.90
11047;DHT22;5576;50.008;10.596;2022-09-09T03:09:24;15.10;99.90
11047;DHT22;5576;50.008;10.596;2022-09-09T03:11:52;15.20;99.90
11047;DHT22;5576;50.008;10.596;2022-09-09T03:14:19;15.20;99.90
11047;DHT22;5576;50.008;10.596;2022-09-09T03:16:47;15.30;99.90
11047;DHT22;5576;50.008;10.596;2022-09-09T03:19:14;15.30;99.90
11047;DHT22;5576;50.008;10.596;2022-09-09T03:21:40;18.60;99.90
11047;DHT22;5576;50.008;10.596;2022-09-09T03:24:06;17.30;99.90
11047;DHT22;5576;50.008;10.596;2022-09-09T03:26:33;17.40;99.90
11047;DHT22;5576;50.008;10.596;2022-09-09T03:28:59;15.20;99.90
11047;DHT22;5576;50.008;10.596;2022-09-09T03:31:27;17.10;99.90
11047;DHT22;5576;50.008;10.596;2022-09-09T03:33:57;18.10;99.90
11047;DHT22;5576;50.008;10.596;2022-09-09T03:36:26;19.30;99.90
11047;DHT22;5576;50.008;10.596;2022-09-09T03:38:53;18.70;99.90
11047;DHT22;5576;50.008;10.596;2022-09-09T03:41:22;19.60;99.90
11047;DHT22;5576;50.008;10.596;2022-09-09T03:43:51;14.00;99.90
11047;DHT22;5576;50.008;10.596;2022-09-09T03:46:18;15.70;99.90
11047;DHT22;5576;50.008;10.596;2022-09-09T03:48:44;15.60;99.90
11047;DHT22;5576;50.008;10.596;2022-09-09T03:51:10;12.10;99.90
11047;DHT22;5576;50.008;10.596;2022-09-09T03:53:36;14.30;99.90
11047;DHT22;5576;50.008;10.596;2022-09-09T03:56:05;11.60;99.90
11047;DHT22;5576;50.008;10.596;2022-09-09T03:58:33;15.40;99.90
11047;DHT22;5576;50.008;10.596;2022-09-09T04:01:09;13.00;99.90
11047;DHT22;5576;50.008;10.596;2022-09-09T04:03:35;19.40;99.90
11047;DHT22;5576;50.008;10.596;2022-09-09T04:06:03;15.40;99.90
11047;DHT22;5576;50.008;10.596;2022-09-09T04:08:30;18.90;99.90
11047;DHT22;5576;50.008;10.596;2022-09-09T04:10:58;14.80;99.90
11047;DHT22;5576;50.008;10.596;2022-09-09T04:13:25;16.80;99.90
11047;DHT22;5576;50.008;10.596;2022-09-09T04:15:53;17.00;99.90
11047;DHT22;5576;50.008;10.596;2022-09-09T04:18:20;15.50;99.90
11047;DHT22;5576;50.008;10.596;2022-09-09T04:20:49;15.50;99.90
11047;DHT22;5576;50.008;10.596;2022-09-09T04:23:19;15.50;99.90
11047;DHT22;5576;50.008;10.596;2022-09-09T04:25:48;15.50;99.90
11047;DHT22;5576;50.008;10.596;2022-09-09T04:28:15;15.50;99.90
11047;DHT22;5576;50.008;10.596;2022-09-09T04:30:42;15.60;99.90
11047;DHT22;5576;50.008;10.596;2022-09-09T04:33:09;15.60;99.90
11047;DHT22;5576;50.008;10.596;2022-09-09T04:35:36;15.60;99.90
11047;DHT22;5576;50.008;10.596;2022-09-09T04:38:02;15.60;99.90
11047;DHT22;5576;50.008;10.596;2022-09-09T04:40:30;13.20;99.90
11047;DHT22;5576;50.008;10.596;2022-09-09T04:42:59;20.30;99.90
11047;DHT22;5576;50.008;10.596;2022-09-09T04:45:25;15.50;99.90
11047;DHT22;5576;50.008;10.596;2022-09-09T04:47:52;14.70;99.90
11047;DHT22;5576;50.008;10.596;2022-09-09T04:50:20;15.40;99.90
11047;DHT22;5576;50.008;10.596;2022-09-09T04:52:46;15.50;99.90
11047;DHT22;5576;50.008;10.596;2022-09-09T04:55:13;15.50;99.90
11047;DHT22;5576;50.008;10.596;2022-09-09T04:57:41;18.20;99.90
11047;DHT22;5576;50.008;10.596;2022-09-09T05:00:10;15.40;99.90
11047;DHT22;5576;50.008;10.596;2022-09-09T05:02:38;11.80;99.90
11047;DHT22;5576;50.008;10.596;2022-09-09T05:05:05;15.20;99.90
11047;DHT22;5576;50.008;10.596;2022-09-09T05:07:32;15.30;99.90
11047;DHT22;5576;50.008;10.596;2022-09-09T05:09:58;15.30;99.90
11047;DHT22;5576;50.008;10.596;2022-09-09T05:12:25;13.40;99.90
11047;DHT22;5576;50.008;10.596;2022-09-09T05:14:52;14.40;99.90
11047;DHT22;5576;50.008;10.596;2022-09-09T05:17:18;15.20;99.90
11047;DHT22;5576;50.008;10.596;2022-09-09T05:19:44;15.00;99.90
11047;DHT22;5576;50.008;10.596;2022-09-09T05:22:10;11.90;99.90
11047;DHT22;5576;50.008;10.596;2022-09-09T05:24:42;15.20;99.90
11047;DHT22;5576;50.008;10.596;2022-09-09T05:27:09;15.10;99.90
11047;DHT22;5576;50.008;10.596;2022-09-09T05:29:38;15.00;99.90
11047;DHT22;5576;50.008;10.596;2022-09-09T05:32:07;15.00;99.90
11047;DHT22;5576;50.008;10.596;2022-09-09T05:34:35;15.10;99.90
11047;DHT22;5576;50.008;10.596;2022-09-09T05:37:00;15.10;99.90
11047;DHT22;5576;50.008;10.596;2022-09-09T05:39:26;17.10;99.90
11047;DHT22;5576;50.008;10.596;2022-09-09T05:41:52;15.20;99.90
11047;DHT22;5576;50.008;10.596;2022-09-09T05:44:18;16.00;99.90
11047;DHT22;5576;50.008;10.596;2022-09-09T05:46:45;14.30;99.90
11047;DHT22;5576;50.008;10.596;2022-09-09T05:49:12;15.20;99.90
11047;DHT22;5576;50.008;10.596;2022-09-09T05:51:39;15.40;99.90
11047;DHT22;5576;50.008;10.596;2022-09-09T05:54:09;15.40;99.90
11047;DHT22;5576;50.008;10.596;2022-09-09T05:56:39;19.90;99.90
11047;DHT22;5576;50.008;10.596;2022-09-09T05:59:07;15.60;99.90
11047;DHT22;5576;50.008;10.596;2022-09-09T06:01:35;15.60;99.90
11047;DHT22;5576;50.008;10.596;2022-09-09T06:04:02;15.60;99.90
11047;DHT22;5576;50.008;10.596;2022-09-09T06:06:34;15.60;99.90
11047;DHT22;5576;50.008;10.596;2022-09-09T06:09:04;15.60;99.90
11047;DHT22;5576;50.008;10.596;2022-09-09T06:11:34;15.50;99.90
11047;DHT22;5576;50.008;10.596;2022-09-09T06:14:02;15.50;99.90
11047;DHT22;5576;50.008;10.596;2022-09-09T06:16:30;15.60;99.90
11047;DHT22;5576;50.008;10.596;2022-09-09T06:18:58;19.00;99.90
11047;DHT22;5576;50.008;10.596;2022-09-09T06:21:28;15.80;99.90
11047;DHT22;5576;50.008;10.596;2022-09-09T06:23:56;15.90;99.90
11047;DHT22;5576;50.008;10.596;2022-09-09T06:26:24;15.90;99.90
11047;DHT22;5576;50.008;10.596;2022-09-09T06:28:52;16.00;99.90
11047;DHT22;5576;50.008;10.596;2022-09-09T06:31:22;16.00;99.90
11047;DHT22;5576;50.008;10.596;2022-09-09T06:33:50;16.00;99.90
11047;DHT22;5576;50.008;10.596;2022-09-09T06:36:19;19.40;99.90
11047;DHT22;5576;50.008;10.596;2022-09-09T06:38:45;17.80;99.90
11047;DHT22;5576;50.008;10.596;2022-09-09T06:41:15;16.40;99.90
11047;DHT22;5576;50.008;10.596;2022-09-09T06:43:43;16.40;99.90
11047;DHT22;5576;50.008;10.596;2022-09-09T06:46:14;16.40;99.90
11047;DHT22;5576;50.008;10.596;2022-09-09T06:48:41;16.60;99.90
11047;DHT22;5576;50.008;10.596;2022-09-09T06:53:41;15.00;99.90
11047;DHT22;5576;50.008;10.596;2022-09-09T06:58:40;16.90;99.90
11047;DHT22;5576;50.008;10.596;2022-09-09T07:01:12;20.00;99.90
11047;DHT22;5576;50.008;10.596;2022-09-09T07:03:39;16.00;99.90
11047;DHT22;5576;50.008;10.596;2022-09-09T07:06:06;17.10;99.90
11047;DHT22;5576;50.008;10.596;2022-09-09T07:08:33;21.20;99.90
11047;DHT22;5576;50.008;10.596;2022-09-09T07:11:03;17.10;99.90
11047;DHT22;5576;50.008;10.596;2022-09-09T07:13:31;17.10;99.90
11047;DHT22;5576;50.008;10.596;2022-09-09T07:16:07;17.10;99.90
11047;DHT22;5576;50.008;10.596;2022-09-09T07:18:33;17.60;99.90
11047;DHT22;5576;50.008;10.596;2022-09-09T07:21:01;17.50;99.90
11047;DHT22;5576;50.008;10.596;2022-09-09T07:23:29;20.60;99.90
11047;DHT22;5576;50.008;10.596;2022-09-09T07:25:56;18.00;99.90
11047;DHT22;5576;50.008;10.596;2022-09-09T07:28:24;17.60;99.90
11047;DHT22;5576;50.008;10.596;2022-09-09T07:30:55;17.80;99.90
11047;DHT22;5576;50.008;10.596;2022-09-09T07:33:21;21.80;99.90
11047;DHT22;5576;50.008;10.596;2022-09-09T07:35:47;17.80;99.90
11047;DHT22;5576;50.008;10.596;2022-09-09T07:38:13;17.80;99.90
11047;DHT22;5576;50.008;10.596;2022-09-09T07:40:41;18.50;99.90
11047;DHT22;5576;50.008;10.596;2022-09-09T07:43:07;17.90;99.90
11047;DHT22;5576;50.008;10.596;2022-09-09T07:45:34;17.90;99.90
11047;DHT22;5576;50.008;10.596;2022-09-09T07:48:00;18.00;99.90
11047;DHT22;5576;50.008;10.596;2022-09-09T07:50:26;18.00;99.90
11047;DHT22;5576;50.008;10.596;2022-09-09T07:52:52;15.60;99.90
11047;DHT22;5576;50.008;10.596;2022-09-09T07:55:20;18.00;99.90
11047;DHT22;5576;50.008;10.596;2022-09-09T07:57:46;18.10;99.90
11047;DHT22;5576;50.008;10.596;2022-09-09T08:00:14;18.10;99.90
11047;DHT22;5576;50.008;10.596;2022-09-09T08:02:43;18.10;99.90
11047;DHT22;5576;50.008;10.596;2022-09-09T08:05:10;15.40;99.90
11047;DHT22;5576;50.008;10.596;2022-09-09T08:07:38;18.10;99.90
11047;DHT22;5576;50.008;10.596;2022-09-09T08:10:05;18.70;99.90
11047;DHT22;5576;50.008;10.596;2022-09-09T08:12:34;18.20;99.90
11047;DHT22;5576;50.008;10.596;2022-09-09T08:15:00;18.20;99.90
11047;DHT22;5576;50.008;10.596;2022-09-09T08:17:29;18.30;99.90
11047;DHT22;5576;50.008;10.596;2022-09-09T08:19:57;18.30;99.90
11047;DHT22;5576;50.008;10.596;2022-09-09T08:22:28;18.40;99.90
11047;DHT22;5576;50.008;10.596;2022-09-09T08:24:54;19.30;99.90
11047;DHT22;5576;50.008;10.596;2022-09-09T08:27:20;18.50;99.90
11047;DHT22;5576;50.008;10.596;2022-09-09T08:29:45;19.60;99.90
11047;DHT22;5576;50.008;10.596;2022-09-09T08:32:11;22.10;99.90
11047;DHT22;5576;50.008;10.596;2022-09-09T08:34:39;18.60;99.90
11047;DHT22;5576;50.008;10.596;2022-09-09T08:37:09;18.60;99.90
11047;DHT22;5576;50.008;10.596;2022-09-09T08:39:38;18.70;99.90
11047;DHT22;5576;50.008;10.596;2022-09-09T08:42:34;18.80;99.90
11047;DHT22;5576;50.008;10.596;2022-09-09T08:50:42;18.90;99.90
11047;DHT22;5576;50.008;10.596;2022-09-09T08:53:19;18.90;99.90
11047;DHT22;5576;50.008;10.596;2022-09-09T08:58:35;19.10;99.90
11047;DHT22;5576;50.008;10.596;2022-09-09T09:01:17;19.20;99.90
11047;DHT22;5576;50.008;10.596;2022-09-09T09:06:42;19.30;99.90
11047;DHT22;5576;50.008;10.596;2022-09-09T09:11:50;19.30;99.90
11047;DHT22;5576;50.008;10.596;2022-09-09T09:14:21;19.40;99.90
11047;DHT22;5576;50.008;10.596;2022-09-09T09:19:22;19.40;99.90
11047;DHT22;5576;50.008;10.596;2022-09-09T09:24:25;23.60;99.90
11047;DHT22;5576;50.008;10.596;2022-09-09T09:26:53;19.40;99.90
11047;DHT22;5576;50.008;10.596;2022-09-09T09:29:20;23.10;99.90
11047;DHT22;5576;50.008;10.596;2022-09-09T09:31:52;19.50;99.90
11047;DHT22;5576;50.008;10.596;2022-09-09T09:34:22;15.40;99.90
11047;DHT22;5576;50.008;10.596;2022-09-09T09:36:59;19.60;99.90
11047;DHT22;5576;50.008;10.596;2022-09-09T09:39:31;19.60;99.90
11047;DHT22;5576;50.008;10.596;2022-09-09T09:42:12;19.50;99.90
11047;DHT22;5576;50.008;10.596;2022-09-09T09:44:41;19.60;99.90
11047;DHT22;5576;50.008;10.596;2022-09-09T09:47:17;19.70;99.90
11047;DHT22;5576;50.008;10.596;2022-09-09T09:49:55;19.60;99.90
11047;DHT22;5576;50.008;10.596;2022-09-09T09:52:25;19.70;99.90
11047;DHT22;5576;50.008;10.596;2022-09-09T09:54:52;19.70;99.90
11047;DHT22;5576;50.008;10.596;2022-09-09T09:57:25;19.80;99.90
11047;DHT22;5576;50.008;10.596;2022-09-09T10:00:12;19.90;99.90
11047;DHT22;5576;50.008;10.596;2022-09-09T10:02:42;17.40;99.90
11047;DHT22;5576;50.008;10.596;2022-09-09T10:07:44;20.60;99.90
11047;DHT22;5576;50.008;10.596;2022-09-09T10:10:27;19.70;99.90
11047;DHT22;5576;50.008;10.596;2022-09-09T10:13:06;19.60;99.90
11047;DHT22;5576;50.008;10.596;2022-09-09T10:18:36;20.50;99.90
11047;DHT22;5576;50.008;10.596;2022-09-09T10:24:23;20.60;99.90
11047;DHT22;5576;50.008;10.596;2022-09-09T10:37:54;20.60;99.90
11047;DHT22;5576;50.008;10.596;2022-09-09T10:43:15;20.50;99.90
11047;DHT22;5576;50.008;10.596;2022-09-09T10:51:22;23.70;99.90
11047;DHT22;5576;50.008;10.596;2022-09-09T10:56:39;20.80;99.90
11047;DHT22;5576;50.008;10.596;2022-09-09T10:59:15;21.00;99.90
11047;DHT22;5576;50.008;10.596;2022-09-09T11:01:44;21.40;99.90
11047;DHT22;5576;50.008;10.596;2022-09-09T11:04:32;21.40;99.90
11047;DHT22;5576;50.008;10.596;2022-09-09T11:07:07;21.70;99.90
11047;DHT22;5576;50.008;10.596;2022-09-09T11:09:40;21.90;99.90
11047;DHT22;5576;50.008;10.596;2022-09-09T11:12:10;22.10;99.90
11047;DHT22;5576;50.008;10.596;2022-09-09T11:15:01;19.80;99.90
11047;DHT22;5576;50.008;10.596;2022-09-09T11:17:42;22.40;99.90
11047;DHT22;5576;50.008;10.596;2022-09-09T11:20:12;23.50;99.90
11047;DHT22;5576;50.008;10.596;2022-09-09T11:22:50;22.10;99.90
11047;DHT22;5576;50.008;10.596;2022-09-09T11:32:53;21.70;99.90
11047;DHT22;5576;50.008;10.596;2022-09-09T11:38:36;21.80;99.90
11047;DHT22;5576;50.008;10.596;2022-09-09T11:41:06;23.50;99.90
11047;DHT22;5576;50.008;10.596;2022-09-09T11:46:05;19.70;99.90
11047;DHT22;5576;50.008;10.596;2022-09-09T11:48:35;23.10;99.90
11047;DHT22;5576;50.008;10.596;2022-09-09T11:53:31;19.20;99.90
11047;DHT22;5576;50.008;10.596;2022-09-09T11:56:09;20.10;99.90
11047;DHT22;5576;50.008;10.596;2022-09-09T11:58:40;20.10;99.90
11047;DHT22;5576;50.008;10.596;2022-09-09T12:01:16;19.70;99.90
11047;DHT22;5576;50.008;10.596;2022-09-09T12:03:47;21.20;99.90
11047;DHT22;5576;50.008;10.596;2022-09-09T12:08:48;19.50;99.90
11047;DHT22;5576;50.008;10.596;2022-09-09T12:11:25;19.40;99.90
11047;DHT22;5576;50.008;10.596;2022-09-09T12:13:54;19.40;99.90
11047;DHT22;5576;50.008;10.596;2022-09-09T12:16:37;19.30;99.90
11047;DHT22;5576;50.008;10.596;2022-09-09T12:19:06;19.00;99.90
11047;DHT22;5576;50.008;10.596;2022-09-09T12:21:38;21.60;99.90
11047;DHT22;5576;50.008;10.596;2022-09-09T12:24:10;16.60;99.90
11047;DHT22;5576;50.008;10.596;2022-09-09T12:26:58;18.70;99.90
11047;DHT22;5576;50.008;10.596;2022-09-09T12:29:44;22.00;99.90
11047;DHT22;5576;50.008;10.596;2022-09-09T12:32:15;18.70;99.90
11047;DHT22;5576;50.008;10.596;2022-09-09T12:34:47;18.30;99.90
11047;DHT22;5576;50.008;10.596;2022-09-09T12:37:35;19.10;99.90
11047;DHT22;5576;50.008;10.596;2022-09-09T12:40:05;19.40;99.90
11047;DHT22;5576;50.008;10.596;2022-09-09T12:42:31;19.60;99.90
11047;DHT22;5576;50.008;10.596;2022-09-09T12:45:03;19.30;99.90
11047;DHT22;5576;50.008;10.596;2022-09-09T12:50:26;20.10;99.90
11047;DHT22;5576;50.008;10.596;2022-09-09T12:52:57;22.20;99.90
11047;DHT22;5576;50.008;10.596;2022-09-09T12:55:28;20.30;99.90
11047;DHT22;5576;50.008;10.596;2022-09-09T12:57:56;20.50;99.90
11047;DHT22;5576;50.008;10.596;2022-09-09T13:00:24;20.90;99.90
11047;DHT22;5576;50.008;10.596;2022-09-09T13:02:52;22.60;99.90
11047;DHT22;5576;50.008;10.596;2022-09-09T13:05:23;22.60;99.90
11047;DHT22;5576;50.008;10.596;2022-09-09T13:07:49;21.00;99.90
11047;DHT22;5576;50.008;10.596;2022-09-09T13:10:22;18.10;99.90
11047;DHT22;5576;50.008;10.596;2022-09-09T13:12:48;25.00;99.90
11047;DHT22;5576;50.008;10.596;2022-09-09T13:15:24;21.40;99.90
11047;DHT22;5576;50.008;10.596;2022-09-09T13:17:54;21.70;99.90
11047;DHT22;5576;50.008;10.596;2022-09-09T13:20:21;22.00;99.90
11047;DHT22;5576;50.008;10.596;2022-09-09T13:22:49;22.50;99.90
11047;DHT22;5576;50.008;10.596;2022-09-09T13:25:19;22.50;99.90
11047;DHT22;5576;50.008;10.596;2022-09-09T13:28:03;22.60;99.90
11047;DHT22;5576;50.008;10.596;2022-09-09T13:30:32;25.90;99.90
11047;DHT22;5576;50.008;10.596;2022-09-09T13:35:27;21.70;99.90
11047;DHT22;5576;50.008;10.596;2022-09-09T13:37:53;23.30;99.90
11047;DHT22;5576;50.008;10.596;2022-09-09T13:40:21;23.60;99.90
11047;DHT22;5576;50.008;10.596;2022-09-09T13:42:50;23.40;99.90
11047;DHT22;5576;50.008;10.596;2022-09-09T13:45:20;21.80;99.90
11047;DHT22;5576;50.008;10.596;2022-09-09T13:47:46;23.50;99.90
11047;DHT22;5576;50.008;10.596;2022-09-09T13:50:19;23.60;99.90
11047;DHT22;5576;50.008;10.596;2022-09-09T13:52:47;26.80;99.90
11047;DHT22;5576;50.008;10.596;2022-09-09T13:55:14;23.90;99.90
11047;DHT22;5576;50.008;10.596;2022-09-09T13:57:51;23.90;99.90
11047;DHT22;5576;50.008;10.596;2022-09-09T14:00:18;24.00;99.90
11047;DHT22;5576;50.008;10.596;2022-09-09T14:02:44;23.90;99.90
11047;DHT22;5576;50.008;10.596;2022-09-09T14:05:10;23.90;99.90
11047;DHT22;5576;50.008;10.596;2022-09-09T14:07:38;24.10;99.90
11047;DHT22;5576;50.008;10.596;2022-09-09T14:10:06;24.00;99.90
11047;DHT22;5576;50.008;10.596;2022-09-09T14:12:32;27.30;99.90
11047;DHT22;5576;50.008;10.596;2022-09-09T14:14:57;23.80;99.90
11047;DHT22;5576;50.008;10.596;2022-09-09T14:17:25;23.60;99.90
11047;DHT22;5576;50.008;10.596;2022-09-09T14:19:55;23.30;99.90
11047;DHT22;5576;50.008;10.596;2022-09-09T14:22:21;24.40;99.90
11047;DHT22;5576;50.008;10.596;2022-09-09T14:24:48;22.90;99.90
11047;DHT22;5576;50.008;10.596;2022-09-09T14:27:13;24.50;99.90
11047;DHT22;5576;50.008;10.596;2022-09-09T14:29:39;23.80;99.90
11047;DHT22;5576;50.008;10.596;2022-09-09T14:32:05;22.60;99.90
11047;DHT22;5576;50.008;10.596;2022-09-09T14:34:31;22.60;99.90
11047;DHT22;5576;50.008;10.596;2022-09-09T14:36:59;22.40;99.90
11047;DHT22;5576;50.008;10.596;2022-09-09T14:39:27;22.30;99.90
11047;DHT22;5576;50.008;10.596;2022-09-09T14:41:53;22.30;99.90
11047;DHT22;5576;50.008;10.596;2022-09-09T14:44:18;22.20;99.90
11047;DHT22;5576;50.008;10.596;2022-09-09T14:46:44;19.50;99.90
11047;DHT22;5576;50.008;10.596;2022-09-09T14:49:10;23.70;99.90
11047;DHT22;5576;50.008;10.596;2022-09-09T14:51:36;21.90;99.90
11047;DHT22;5576;50.008;10.596;2022-09-09T14:54:02;21.90;99.90
11047;DHT22;5576;50.008;10.596;2022-09-09T14:56:31;21.70;99.90
11047;DHT22;5576;50.008;10.596;2022-09-09T14:58:59;21.60;99.90
11047;DHT22;5576;50.008;10.596;2022-09-09T15:01:26;21.30;99.90
11047;DHT22;5576;50.008;10.596;2022-09-09T15:03:54;19.40;99.90
11047;DHT22;5576;50.008;10.596;2022-09-09T15:06:22;20.90;99.90
11047;DHT22;5576;50.008;10.596;2022-09-09T15:08:50;20.60;99.90
11047;DHT22;5576;50.008;10.596;2022-09-09T15:11:16;20.40;99.90
11047;DHT22;5576;50.008;10.596;2022-09-09T15:13:43;20.40;99.90
11047;DHT22;5576;50.008;10.596;2022-09-09T15:16:11;18.80;99.90
11047;DHT22;5576;50.008;10.596;2022-09-09T15:18:37;19.30;99.90
11047;DHT22;5576;50.008;10.596;2022-09-09T15:21:11;16.40;99.90
11047;DHT22;5576;50.008;10.596;2022-09-09T15:23:37;18.00;99.90
11047;DHT22;5576;50.008;10.596;2022-09-09T15:26:03;20.20;99.90
11047;DHT22;5576;50.008;10.596;2022-09-09T15:28:32;20.20;99.90
11047;DHT22;5576;50.008;10.596;2022-09-09T15:30:58;18.20;99.90
11047;DHT22;5576;50.008;10.596;2022-09-09T15:33:29;22.60;99.90
11047;DHT22;5576;50.008;10.596;2022-09-09T15:35:55;20.20;99.90
11047;DHT22;5576;50.008;10.596;2022-09-09T15:38:21;20.00;99.90
11047;DHT22;5576;50.008;10.596;2022-09-09T15:40:53;19.70;99.90
11047;DHT22;5576;50.008;10.596;2022-09-09T15:43:19;16.10;99.90
11047;DHT22;5576;50.008;10.596;2022-09-09T15:45:46;19.50;99.90
11047;DHT22;5576;50.008;10.596;2022-09-09T15:48:14;19.40;99.90
11047;DHT22;5576;50.008;10.596;2022-09-09T15:50:40;19.10;99.90
11047;DHT22;5576;50.008;10.596;2022-09-09T15:53:06;19.40;99.90
11047;DHT22;5576;50.008;10.596;2022-09-09T15:55:31;19.30;99.90
11047;DHT22;5576;50.008;10.596;2022-09-09T15:57:57;22.30;99.90
11047;DHT22;5576;50.008;10.596;2022-09-09T16:02:50;16.10;99.90
11047;DHT22;5576;50.008;10.596;2022-09-09T16:05:16;19.50;99.90
11047;DHT22;5576;50.008;10.596;2022-09-09T16:07:42;19.60;99.90
11047;DHT22;5576;50.008;10.596;2022-09-09T16:10:09;19.70;99.90
11047;DHT22;5576;50.008;10.596;2022-09-09T16:12:36;18.60;99.90
11047;DHT22;5576;50.008;10.596;2022-09-09T16:15:02;19.70;99.90
11047;DHT22;5576;50.008;10.596;2022-09-09T16:17:27;17.00;99.90
11047;DHT22;5576;50.008;10.596;2022-09-09T16:19:53;19.50;99.90
11047;DHT22;5576;50.008;10.596;2022-09-09T16:22:20;19.50;99.90
11047;DHT22;5576;50.008;10.596;2022-09-09T16:24:46;19.40;99.90
11047;DHT22;5576;50.008;10.596;2022-09-09T16:27:12;22.60;99.90
11047;DHT22;5576;50.008;10.596;2022-09-09T16:29:38;19.60;99.90
11047;DHT22;5576;50.008;10.596;2022-09-09T16:32:04;18.10;99.90
11047;DHT22;5576;50.008;10.596;2022-09-09T16:34:30;19.70;99.90
11047;DHT22;5576;50.008;10.596;2022-09-09T16:36:55;19.70;99.90
11047;DHT22;5576;50.008;10.596;2022-09-09T16:39:21;19.60;99.90
11047;DHT22;5576;50.008;10.596;2022-09-09T16:41:48;19.50;99.90
11047;DHT22;5576;50.008;10.596;2022-09-09T16:44:15;19.50;99.90
11047;DHT22;5576;50.008;10.596;2022-09-09T16:46:43;19.30;99.90
11047;DHT22;5576;50.008;10.596;2022-09-09T16:49:11;19.00;99.90
11047;DHT22;5576;50.008;10.596;2022-09-09T16:51:40;18.80;99.90
11047;DHT22;5576;50.008;10.596;2022-09-09T16:54:08;21.20;99.90
11047;DHT22;5576;50.008;10.596;2022-09-09T16:56:36;18.70;99.90
11047;DHT22;5576;50.008;10.596;2022-09-09T16:59:05;18.70;99.90
11047;DHT22;5576;50.008;10.596;2022-09-09T17:01:33;18.70;99.90
11047;DHT22;5576;50.008;10.596;2022-09-09T17:04:05;18.70;99.90
11047;DHT22;5576;50.008;10.596;2022-09-09T17:06:33;21.70;99.90
11047;DHT22;5576;50.008;10.596;2022-09-09T17:09:03;18.60;99.90
11047;DHT22;5576;50.008;10.596;2022-09-09T17:11:29;18.50;99.90
11047;DHT22;5576;50.008;10.596;2022-09-09T17:13:56;18.50;99.90
11047;DHT22;5576;50.008;10.596;2022-09-09T17:16:27;18.40;99.90
11047;DHT22;5576;50.008;10.596;2022-09-09T17:18:54;22.00;99.90
11047;DHT22;5576;50.008;10.596;2022-09-09T17:21:22;18.30;99.90
11047;DHT22;5576;50.008;10.596;2022-09-09T17:23:49;20.70;99.90
11047;DHT22;5576;50.008;10.596;2022-09-09T17:26:17;18.20;99.90
11047;DHT22;5576;50.008;10.596;2022-09-09T17:28:44;18.10;99.90
11047;DHT22;5576;50.008;10.596;2022-09-09T17:31:13;15.80;99.90
11047;DHT22;5576;50.008;10.596;2022-09-09T17:33:42;18.10;99.90
11047;DHT22;5576;50.008;10.596;2022-09-09T17:36:10;18.10;99.90